Terminal Aerodrome Forecast
Issued by NWS

Home | Current Version | Previous Version | Text Only | Print | Product List | Glossary On
Versions: 1 2 3 4 5 6 7 8 9 10 11 12 13 14 15 16 17
443
FTUS46 KSGX 220536
TAFCRQ
TAF
KCRQ 220536Z 2206/2306 26006KT P6SM FEW025 SCT120
     FM221200 15012G18KT P6SM VCSH SCT020 BKN035 OVC050
     FM221700 17015G25KT 5SM -RA SCT010 BKN030 OVC050
     FM222100 17018G28KT 3SM SHRA BR BKN015 OVC030=

USA.gov is the U.S. government's official web portal to all federal, state and local government web resources and services.